Happy Valentine's Day! 

Flight Track Log - Related Links

Times and Time Zones

All times are in EDT time to prevent confusion due to time zone crossing. See the SWA1844 flight status page for this flight to view local times or setup timezone preferences in your user account.


Time Position Orientation Groundspeed Altitude Reporting Facility
EDT Latitude Longitude Course Direction KTS MPH feet Rate Location/Type
Thu 12:38:23 AM 33.4317 -112.0775 268° West 165 190 4,400  Level Albuquerque Center
Thu 12:39:24 AM 33.4300 -112.1464 268° West 202 232 7,700 3,197 Climbing Albuquerque Center
Thu 12:40:25 AM 33.4869 -112.1525 355° North 266 306 10,900 2,876 Climbing Albuquerque Center
Thu 12:41:25 AM 33.5628 -112.0967 32° Northeast 330 380 13,500 3,273 Climbing Albuquerque Center
Thu 12:42:26 AM 33.6456 -112.0358 31° Northeast 349 402 17,500 3,393 Climbing Albuquerque Center
Thu 12:43:27 AM 33.7456 -112.0186 North 371 427 20,400 3,000 Climbing Albuquerque Center
Thu 12:44:28 AM 33.8544 -112.0256 357° North 387 445 23,600 3,025 Climbing Albuquerque Center
Thu 12:45:28 AM 33.9661 -112.0319 357° North 394 453 26,500 2,678 Climbing Albuquerque Center
Thu 12:46:29 AM 34.0817 -112.0381 357° North 407 468 29,000 2,213 Climbing Albuquerque Center
Thu 12:47:30 AM 34.2008 -112.0456 357° North 421 484 31,000 2,311 Climbing Albuquerque Center
Thu 12:48:31 AM 34.3211 -112.0525 357° North 430 495 33,700 2,628 Climbing Albuquerque Center
Thu 12:49:31 AM 34.4367 -112.0592 357° North 419 482 36,300 2,132 Climbing Albuquerque Center
Thu 12:50:32 AM 34.5456 -112.0661 357° North 401 461 38,000 836 Climbing Albuquerque Center
Thu 12:51:33 AM 34.6575 -112.0714 358° North 399 459 38,000  Level Albuquerque Center
Thu 12:52:33 AM 34.7697 -112.0786 357° North 402 463 38,000  Level Albuquerque Center
Thu 12:53:34 AM 34.9036 -112.0858 357° North 402 463 38,000  Level Albuquerque Center
Thu 12:54:35 AM 35.0150 -112.0917 358° North 403 464 38,000  Level Albuquerque Center
Thu 12:55:35 AM 35.1258 -112.0978 357° North 403 464 38,000  Level Albuquerque Center
Thu 12:56:36 AM 35.2372 -112.1039 357° North 403 464 38,000  Level Albuquerque Center
Thu 12:57:37 AM 35.3481 -112.1114 357° North 403 464 38,000  Level Albuquerque Center
Thu 12:58:37 AM 35.4569 -112.1161 358° North 399 459 38,000  Level Albuquerque Center
Thu 12:59:38 AM 35.5650 -112.1222 357° North 394 453 38,000  Level Albuquerque Center
Thu 01:00:39 AM 35.6728 -112.1286 357° North 392 451 38,000  Level Albuquerque Center
Thu 01:01:39 AM 35.7811 -112.1353 357° North 391 450 38,000  Level Albuquerque Center
Thu 01:02:40 AM 35.8858 -112.1553 351° North 387 445 38,000  Level Albuquerque Center
Thu 01:03:41 AM 35.9783 -112.2147 333° Northwest 384 442 38,000  Level Albuquerque Center
Thu 01:04:41 AM 36.0897 -112.2839 333° Northwest 379 436 38,000  Level Albuquerque Center
Thu 01:05:30 AM 36.1536 -112.3258 332° Northwest 376 433 38,000  Level Salt Lake Center
Thu 01:05:49 AM 36.1908 -112.3475 335° Northwest 375 432 38,000  Level Los Angeles Center
Thu 01:06:50 AM 36.2831 -112.4083 332° Northwest 375 432 38,000  Level Los Angeles Center
Thu 01:07:51 AM 36.3756 -112.4681 333° Northwest 374 430 38,000  Level Los Angeles Center
Thu 01:08:53 AM 36.4683 -112.5281 333° Northwest 375 432 38,000  Level Los Angeles Center
Thu 01:09:54 AM 36.5608 -112.5867 333° Northwest 375 432 38,000  Level Los Angeles Center
Thu 01:10:55 AM 36.6533 -112.6481 332° Northwest 376 433 38,000  Level Los Angeles Center
Thu 01:11:56 AM 36.7467 -112.7086 333° Northwest 378 435 38,000  Level Los Angeles Center
Thu 01:12:57 AM 36.8392 -112.7694 332° Northwest 376 433 38,000  Level Los Angeles Center
Thu 01:13:59 AM 36.9503 -112.8436 332° Northwest 377 434 38,000  Level Los Angeles Center
Thu 01:15:00 AM 37.0442 -112.9047 333° Northwest 379 436 38,000  Level Los Angeles Center
Thu 01:16:01 AM 37.1369 -112.9672 332° Northwest 378 435 38,000  Level Los Angeles Center
Thu 01:16:39 AM 37.1917 -113.0028 333° Northwest 375 432 38,000  Level Salt Lake Center
Thu 01:17:40 AM 37.2842 -113.0656 332° Northwest 376 433 38,000  Level Salt Lake Center
Thu 01:18:41 AM 37.3767 -113.1267 332° Northwest 374 430 38,000  Level Salt Lake Center
Thu 01:19:41 AM 37.4697 -113.1881 332° Northwest 373 429 38,000  Level Salt Lake Center
Thu 01:20:42 AM 37.5644 -113.2525 332° Northwest 381 438 38,000  Level Salt Lake Center
Thu 01:21:43 AM 37.6586 -113.3158 332° Northwest 382 440 38,000  Level Salt Lake Center
Thu 01:22:44 AM 37.7528 -113.3789 332° Northwest 381 438 38,000  Level Salt Lake Center
Thu 01:23:44 AM 37.8450 -113.4422 332° Northwest 378 435 38,000  Level Salt Lake Center
Thu 01:24:45 AM 37.9378 -113.5044 332° Northwest 377 434 38,000  Level Salt Lake Center
Thu 01:25:46 AM 38.0244 -113.5756 327° Northwest 372 428 38,000  Level Salt Lake Center
Thu 01:26:46 AM 38.1114 -113.6469 327° Northwest 372 428 38,000  Level Salt Lake Center
Thu 01:27:47 AM 38.1989 -113.7161 328° Northwest 371 427 38,000  Level Salt Lake Center
Thu 01:28:48 AM 38.2856 -113.7878 327° Northwest 371 427 38,000  Level Salt Lake Center
Thu 01:29:48 AM 38.3722 -113.8600 327° Northwest 372 428 38,000  Level Salt Lake Center
Thu 01:30:48 AM 38.4606 -113.9314 328° Northwest 377 434 38,000  Level Salt Lake Center
Thu 01:31:49 AM 38.5472 -114.0069 326° Northwest 376 433 38,000  Level Salt Lake Center
Thu 01:32:50 AM 38.6353 -114.0781 328° Northwest 375 432 38,000  Level Salt Lake Center
Thu 01:33:50 AM 38.7222 -114.1497 327° Northwest 373 429 38,000  Level Salt Lake Center
Thu 01:34:51 AM 38.8253 -114.2375 326° Northwest 371 427 38,000  Level Salt Lake Center
Thu 01:35:51 AM 38.9108 -114.3097 327° Northwest 370 426 38,000  Level Salt Lake Center
Thu 01:36:52 AM 38.9964 -114.3811 327° Northwest 367 422 38,000  Level Salt Lake Center
Thu 01:37:52 AM 39.0817 -114.4547 326° Northwest 368 423 38,000  Level Salt Lake Center
Thu 01:38:53 AM 39.1672 -114.5278 327° Northwest 370 426 38,000  Level Salt Lake Center
Thu 01:39:54 AM 39.2422 -114.5961 325° Northwest 366 421 38,000  Level Salt Lake Center
Thu 01:40:54 AM 39.3372 -114.6761 327° Northwest 366 421 38,000  Level Salt Lake Center
Thu 01:41:55 AM 39.4181 -114.7458 326° Northwest 366 421 38,000  Level Salt Lake Center
Thu 01:42:55 AM 39.5019 -114.8119 329° Northwest 368 423 38,000  Level Salt Lake Center
Thu 01:43:56 AM 39.5958 -114.8947 326° Northwest 365 420 38,000  Level Salt Lake Center
Thu 01:44:57 AM 39.6761 -114.9644 326° Northwest 363 418 38,000  Level Salt Lake Center
Thu 01:45:57 AM 39.7578 -115.0342 327° Northwest 366 421 38,000  Level Salt Lake Center
Thu 01:46:58 AM 39.8528 -115.1175 326° Northwest 367 422 38,000  Level Salt Lake Center
Thu 01:47:58 AM 39.9331 -115.1875 326° Northwest 366 421 38,000  Level Salt Lake Center
Thu 01:48:59 AM 40.0142 -115.2589 326° Northwest 366 421 38,000  Level Salt Lake Center
Thu 01:49:59 AM 40.1086 -115.3422 326° Northwest 366 421 38,000  Level Salt Lake Center
Thu 01:51:00 AM 40.1897 -115.4136 326° Northwest 366 421 38,000  Level Salt Lake Center
Thu 01:52:01 AM 40.2700 -115.4858 326° Northwest 365 420 38,000  Level Salt Lake Center
Thu 01:53:01 AM 40.3656 -115.5692 326° Northwest 368 423 38,000  Level Salt Lake Center
Thu 01:54:02 AM 40.4464 -115.6411 326° Northwest 367 422 38,000  Level Salt Lake Center
Thu 01:55:02 AM 40.5242 -115.7131 325° Northwest 362 417 38,000  Level Salt Lake Center
Thu 01:56:03 AM 40.6056 -115.7844 326° Northwest 366 421 38,000  Level Salt Lake Center
Thu 01:57:04 AM 40.6978 -115.8678 326° Northwest 362 417 38,000  Level Salt Lake Center
Thu 01:58:04 AM 40.7792 -115.9383 327° Northwest 365 420 38,000  Level Salt Lake Center
Thu 01:59:04 AM 40.8586 -116.0108 325° Northwest 364 419 38,000  Level Salt Lake Center
Thu 02:00:05 AM 40.9517 -116.0958 325° Northwest 365 420 38,000  Level Salt Lake Center
Thu 02:01:05 AM 41.0300 -116.1667 326° Northwest 360 414 38,000  Level Salt Lake Center
Thu 02:02:06 AM 41.1089 -116.2386 326° Northwest 360 414 38,000  Level Salt Lake Center
Thu 02:03:06 AM 41.2031 -116.3275 325° Northwest 368 423 38,000  Level Salt Lake Center
Thu 02:04:07 AM 41.2819 -116.4003 325° Northwest 364 419 38,000  Level Salt Lake Center
Thu 02:05:07 AM 41.3614 -116.4725 326° Northwest 362 417 38,000  Level Salt Lake Center
Thu 02:06:08 AM 41.4547 -116.5597 325° Northwest 369 425 38,000  Level Salt Lake Center
Thu 02:07:08 AM 41.5328 -116.6314 326° Northwest 359 413 38,000  Level Salt Lake Center
Thu 02:08:10 AM 41.6108 -116.7044 325° Northwest 359 413 38,000  Level Salt Lake Center
Thu 02:09:09 AM 41.7025 -116.7900 325° Northwest 360 414 38,000  Level Salt Lake Center
Thu 02:10:10 AM 41.7803 -116.8606 326° Northwest 356 410 38,000  Level Salt Lake Center
Thu 02:11:10 AM 41.8578 -116.9350 324° Northwest 357 411 38,000  Level Salt Lake Center
Thu 02:12:11 AM 41.9494 -117.0197 326° Northwest 357 411 38,000  Level Salt Lake Center
Thu 02:13:11 AM 42.0278 -117.0931 325° Northwest 359 413 38,000  Level Salt Lake Center
Thu 02:14:12 AM 42.1069 -117.1683 325° Northwest 363 418 38,000  Level Salt Lake Center
Thu 02:15:12 AM 42.1858 -117.2442 325° Northwest 364 419 38,000  Level Salt Lake Center
Thu 02:16:13 AM 42.2719 -117.3264 325° Northwest 363 418 38,000  Level Salt Lake Center
Thu 02:17:13 AM 42.3636 -117.4136 325° Northwest 361 415 38,000  Level Salt Lake Center
Thu 02:18:14 AM 42.4428 -117.4906 324° Northwest 364 419 38,000  Level Salt Lake Center
Thu 02:19:14 AM 42.5222 -117.5672 325° Northwest 366 421 38,000  Level Salt Lake Center
Thu 02:20:15 AM 42.6017 -117.6436 325° Northwest 366 421 38,000  Level Salt Lake Center
Thu 02:21:15 AM 42.6942 -117.7336 324° Northwest 367 422 38,000  Level Salt Lake Center
Thu 02:22:16 AM 42.7725 -117.8106 324° Northwest 363 418 38,000  Level Salt Lake Center
Thu 02:23:16 AM 42.8522 -117.8881 325° Northwest 366 421 38,000  Level Salt Lake Center
Thu 02:24:17 AM 42.9450 -117.9786 324° Northwest 367 422 38,000  Level Salt Lake Center
Thu 02:25:17 AM 43.0247 -118.0575 324° Northwest 369 425 38,000  Level Salt Lake Center
Thu 02:26:18 AM 43.1039 -118.1350 324° Northwest 367 422 38,000  Level Salt Lake Center
Thu 02:27:18 AM 43.1947 -118.2264 324° Northwest 362 417 38,000  Level Salt Lake Center
Thu 02:28:19 AM 43.2736 -118.3019 325° Northwest 363 418 38,000  Level Salt Lake Center
Thu 02:29:19 AM 43.3547 -118.3836 324° Northwest 363 418 38,000  Level Salt Lake Center
Thu 02:30:20 AM 43.4361 -118.4672 323° Northwest 364 419 38,000  Level Salt Lake Center
Thu 02:31:20 AM 43.5178 -118.5472 325° Northwest 362 417 38,000  Level Salt Lake Center
Thu 02:32:21 AM 43.5994 -118.6303 324° Northwest 363 418 38,000  Level Salt Lake Center
Thu 02:33:21 AM 43.6647 -118.6953 324° Northwest 364 419 38,000  Level Salt Lake Center
Thu 02:34:22 AM 43.7633 -118.7944 324° Northwest 365 420 38,000  Level Salt Lake Center
Thu 02:35:22 AM 43.8444 -118.8783 323° Northwest 366 421 38,000  Level Salt Lake Center
Thu 02:35:52 AM 43.8878 -118.9236 323° Northwest 364 419 38,000  Level Seattle Center
Thu 02:36:53 AM 43.9761 -119.0108 325° Northwest 367 422 38,000  Level Seattle Center
Thu 02:37:53 AM 44.0581 -119.0961 323° Northwest 368 423 38,000  Level Seattle Center
Thu 02:38:53 AM 44.1439 -119.1717 328° Northwest 367 422 38,000  Level Seattle Center
Thu 02:39:54 AM 44.2425 -119.2186 341° North 373 429 38,000  Level Seattle Center
Thu 02:40:54 AM 44.3389 -119.2675 340° North 371 427 38,000  Level Seattle Center
Thu 02:41:54 AM 44.4358 -119.3161 340° North 371 427 38,000  Level Seattle Center
Thu 02:42:55 AM 44.5311 -119.3650 340° North 368 423 38,000  Level Seattle Center
Thu 02:43:55 AM 44.6267 -119.4136 340° North 367 422 38,000  Level Seattle Center
Thu 02:44:55 AM 44.7228 -119.4625 340° North 368 423 38,000  Level Seattle Center
Thu 02:45:56 AM 44.8183 -119.5119 340° North 369 425 38,000  Level Seattle Center
Thu 02:46:56 AM 44.9139 -119.5606 340° North 368 423 38,000  Level Seattle Center
Thu 02:47:56 AM 45.0094 -119.6108 340° North 371 427 38,000  Level Seattle Center
Thu 02:48:57 AM 45.1053 -119.6597 340° North 372 428 38,000  Level Seattle Center
Thu 02:49:57 AM 45.2017 -119.7114 339° North 374 430 38,000  Level Seattle Center
Thu 02:50:57 AM 45.2994 -119.7625 340° North 377 434 38,000  Level Seattle Center
Thu 02:51:58 AM 45.3986 -119.8136 340° North 380 437 38,000  Level Seattle Center
Thu 02:52:58 AM 45.4975 -119.8658 340° North 381 438 38,000  Level Seattle Center
Thu 02:53:58 AM 45.5975 -119.9189 340° North 385 443 38,000  Level Seattle Center
Thu 02:54:58 AM 45.6978 -119.9706 340° North 384 442 38,000  Level Seattle Center
Thu 02:55:59 AM 45.7969 -120.0236 340° North 382 440 38,000  Level Seattle Center
Thu 02:56:59 AM 45.8978 -120.0800 339° North 390 449 38,000  Level Seattle Center
Thu 02:57:59 AM 46.0178 -120.1436 340° North 387 445 38,000  Level Seattle Center
Thu 02:58:59 AM 46.1189 -120.1986 339° North 388 447 38,000  Level Seattle Center
Thu 03:00:00 AM 46.2197 -120.2528 340° North 389 448 38,000 -99 Level Seattle Center
Thu 03:01:00 AM 46.3211 -120.3092 339° North 391 450 37,800 -1,400 Descending Seattle Center
Thu 03:02:00 AM 46.4203 -120.3633 339° North 383 441 35,200 -2,500 Descending Seattle Center
Thu 03:03:00 AM 46.5194 -120.4181 339° North 381 438 32,800 -2,350 Descending Seattle Center
Thu 03:04:00 AM 46.5978 -120.5047 323° Northwest 363 418 30,500 -2,231 Descending Seattle Center
Thu 03:05:01 AM 46.6539 -120.6250 304° West 357 411 28,300 -2,132 Descending Seattle Center
Thu 03:06:01 AM 46.7089 -120.7394 305° West 347 399 26,200 -2,150 Descending Seattle Center
Thu 03:07:01 AM 46.7633 -120.8539 305° West 342 394 24,000 -2,250 Descending Seattle Center
Thu 03:08:01 AM 46.8167 -120.9669 305° West 339 390 21,700 -2,150 Descending Seattle Center
Thu 03:09:01 AM 46.8681 -121.0767 304° West 333 383 19,700 -1,934 Descending Seattle Center
Thu 03:10:02 AM 46.9189 -121.1844 305° West 326 375 17,800 -1,785 Descending Seattle Center
Thu 03:11:02 AM 46.9669 -121.2939 303° West 322 371 16,100 -1,897 Descending Seattle Center
Thu 03:11:59 AM 47.0167 -121.3928 306° West 316 364 14,100 -2,000 Descending Seattle Center
Thu 03:13:02 AM 47.0647 -121.4964 304° West 309 356 12,100 -1,317 Descending Seattle Center
Thu 03:14:02 AM 47.1019 -121.5986 298° West 290 334 11,400 -1,190 Descending Seattle Center
Thu 03:15:03 AM 47.1242 -121.7083 287° West 284 327 9,700 -1,732 Descending Seattle Center
Thu 03:15:39 AM 47.1419 -121.7850 289° West 279 321 8,600 -1,688 Descending Seattle Center
Thu 03:16:07 AM 47.1531 -121.8356 288° West 277 319 7,900 -1,475 Descending Seattle Center
Thu 03:16:40 AM 47.1653 -121.8917 288° West 275 316 7,100 -806 Descending Seattle Center
Thu 03:17:14 AM 47.1781 -121.9489 288° West 271 312 7,000 -400 Descending Seattle Center
Thu 03:17:40 AM 47.1900 -121.9944 291° West 269 310 6,700 -1,279 Descending Seattle Center
Thu 03:18:15 AM 47.2042 -122.0586 288° West 266 306 5,700 -1,500 Descending Seattle Center
Thu 03:18:40 AM 47.2150 -122.0972 292° West 268 308 5,200 -778 Descending Seattle Center
Thu 03:19:09 AM 47.2261 -122.1444 289° West 264 304 5,000 -900 Descending Seattle Center
Thu 03:19:40 AM 47.2364 -122.1925 288° West 248 285 4,300 -1,180 Descending Seattle Center
Thu 03:20:10 AM 47.2450 -122.2353 287° West 231 266 3,800 -1,200 Descending Seattle Center
Thu 03:20:40 AM 47.2572 -122.2811 291° West 232 267 3,100 -1,100 Descending Seattle Center
Thu 03:21:10 AM 47.2828 -122.3058 327° Northwest 210 242 2,700 -900 Descending Seattle Center
Thu 03:21:40 AM 47.3078 -122.3086 356° North 193 222 2,200 -885 Descending Seattle Center
Thu 03:22:11 AM 47.3322 -122.3081 North 158 182 1,800 -492 Descending Seattle Center
Thu 03:22:41 AM 47.3492 -122.3086 359° North 151 174 1,700 -197 Descending Seattle Center
Thu 03:23:12 AM 47.3661 -122.3092 359° North 106 122 1,600 -400 Descending Seattle Center
Thu 03:23:41 AM 47.3806 -122.3083 North 117 135 1,300 -500 Descending Seattle Center
Thu 03:24:12 AM 47.3969 -122.3086 359° North 108 124 1,100 -500 Descending Seattle Center
Thu 03:24:41 AM 47.4108 -122.3086 360° North 111 128 800 -590 Descending Seattle Center
Thu 03:25:13 AM 47.4258 -122.3089 359° North 111 128 500 -400 Descending Seattle Center
Thu 03:25:41 AM 47.4375 -122.3092 359° North 114 131 400 -68 Descending Seattle Center
Thu 03:26:41 AM 47.4469 -122.3067 10° North 95 109 400  Level Seattle Center

Login

Don't have an account? Register now (free) for customized features, flight alerts, and more!